sensor_id;sensor_type;location;lat;lon;timestamp;pressure;altitude;pressure_sealevel;temperature;humidity
6150;BME280;3106;42.670;23.318;2022-10-26T00:01:32;94892.66;;;16.29;83.57
6150;BME280;3106;42.670;23.318;2022-10-26T00:03:59;94896.44;;;16.25;83.82
6150;BME280;3106;42.670;23.318;2022-10-26T00:06:26;94884.78;;;16.17;84.11
6150;BME280;3106;42.670;23.318;2022-10-26T00:08:54;94893.81;;;16.28;83.90
6150;BME280;3106;42.670;23.318;2022-10-26T00:11:23;94899.09;;;16.21;83.71
6150;BME280;3106;42.670;23.318;2022-10-26T02:06:14;94862.06;;;15.18;87.25
6150;BME280;3106;42.670;23.318;2022-10-26T02:08:55;94869.38;;;15.17;87.58
6150;BME280;3106;42.670;23.318;2022-10-26T02:11:35;94854.09;;;15.03;88.12
6150;BME280;3106;42.670;23.318;2022-10-26T02:14:11;94861.41;;;15.02;88.33
6150;BME280;3106;42.670;23.318;2022-10-26T02:16:48;94876.16;;;15.11;88.41
6150;BME280;3106;42.670;23.318;2022-10-26T02:19:24;94884.81;;;15.20;88.22
6150;BME280;3106;42.670;23.318;2022-10-26T02:21:59;94857.56;;;15.03;88.52
6150;BME280;3106;42.670;23.318;2022-10-26T02:24:30;94875.47;;;15.14;88.33
6150;BME280;3106;42.670;23.318;2022-10-26T02:26:59;94872.59;;;15.04;88.81
6150;BME280;3106;42.670;23.318;2022-10-26T02:29:27;94887.50;;;15.20;89.16
6150;BME280;3106;42.670;23.318;2022-10-26T02:31:56;94861.41;;;15.02;89.50
6150;BME280;3106;42.670;23.318;2022-10-26T02:34:26;94886.25;;;15.14;89.51
6150;BME280;3106;42.670;23.318;2022-10-26T02:36:58;94886.19;;;15.11;89.31
6150;BME280;3106;42.670;23.318;2022-10-26T02:39:30;94871.50;;;15.08;89.46
6150;BME280;3106;42.670;23.318;2022-10-26T02:42:01;94882.22;;;15.05;89.83
6150;BME280;3106;42.670;23.318;2022-10-26T02:44:33;94875.09;;;14.94;90.28
6150;BME280;3106;42.670;23.318;2022-10-26T02:47:01;94874.69;;;14.92;90.66
6150;BME280;3106;42.670;23.318;2022-10-26T02:49:29;94863.66;;;14.78;91.32
6150;BME280;3106;42.670;23.318;2022-10-26T02:52:01;94893.44;;;14.88;91.89
6150;BME280;3106;42.670;23.318;2022-10-26T02:54:34;94899.13;;;14.83;91.87
6150;BME280;3106;42.670;23.318;2022-10-26T02:57:07;94879.22;;;14.69;92.56
6150;BME280;3106;42.670;23.318;2022-10-26T02:59:39;94890.06;;;14.72;93.10
6150;BME280;3106;42.670;23.318;2022-10-26T03:02:08;94877.84;;;14.56;93.52
6150;BME280;3106;42.670;23.318;2022-10-26T03:04:36;94888.53;;;14.52;94.02
6150;BME280;3106;42.670;23.318;2022-10-26T03:07:05;94910.25;;;14.63;94.30
6150;BME280;3106;42.670;23.318;2022-10-26T03:09:32;94900.38;;;14.48;94.83
6150;BME280;3106;42.670;23.318;2022-10-26T03:11:58;94906.59;;;14.52;95.17
6150;BME280;3106;42.670;23.318;2022-10-26T03:14:25;94906.28;;;14.38;96.04
6150;BME280;3106;42.670;23.318;2022-10-26T03:16:52;94882.84;;;14.19;96.52
6150;BME280;3106;42.670;23.318;2022-10-26T03:19:19;94911.66;;;14.38;97.13
6150;BME280;3106;42.670;23.318;2022-10-26T03:21:46;94918.84;;;14.30;97.84
6150;BME280;3106;42.670;23.318;2022-10-26T03:24:14;94914.44;;;14.22;98.42
6150;BME280;3106;42.670;23.318;2022-10-26T03:26:41;94926.06;;;14.26;98.71
6150;BME280;3106;42.670;23.318;2022-10-26T03:29:08;94904.13;;;14.09;99.05
6150;BME280;3106;42.670;23.318;2022-10-26T03:31:35;94911.13;;;14.13;99.25
6150;BME280;3106;42.670;23.318;2022-10-26T03:34:01;94920.25;;;14.09;99.71
6150;BME280;3106;42.670;23.318;2022-10-26T03:36:28;94911.59;;;14.00;100.00
6150;BME280;3106;42.670;23.318;2022-10-26T03:38:56;94919.47;;;14.08;100.00
6150;BME280;3106;42.670;23.318;2022-10-26T03:41:25;94931.19;;;14.16;100.00
6150;BME280;3106;42.670;23.318;2022-10-26T03:43:52;94914.38;;;14.03;100.00
6150;BME280;3106;42.670;23.318;2022-10-26T03:46:27;94896.38;;;13.88;100.00
6150;BME280;3106;42.670;23.318;2022-10-26T03:48:54;94927.19;;;14.10;100.00
6150;BME280;3106;42.670;23.318;2022-10-26T03:51:21;94926.41;;;14.09;100.00
6150;BME280;3106;42.670;23.318;2022-10-26T03:53:48;94921.81;;;14.10;100.00
6150;BME280;3106;42.670;23.318;2022-10-26T03:56:14;94935.19;;;14.06;100.00
6150;BME280;3106;42.670;23.318;2022-10-26T03:58:43;94934.75;;;14.04;100.00
6150;BME280;3106;42.670;23.318;2022-10-26T04:01:10;94928.94;;;14.02;100.00
6150;BME280;3106;42.670;23.318;2022-10-26T04:03:36;94912.09;;;13.86;100.00
6150;BME280;3106;42.670;23.318;2022-10-26T04:06:03;94928.41;;;13.97;100.00
6150;BME280;3106;42.670;23.318;2022-10-26T04:08:30;94917.88;;;13.88;100.00
6150;BME280;3106;42.670;23.318;2022-10-26T04:10:57;94931.38;;;13.92;100.00
6150;BME280;3106;42.670;23.318;2022-10-26T04:13:24;94917.28;;;13.79;100.00
6150;BME280;3106;42.670;23.318;2022-10-26T04:15:54;94900.75;;;13.62;100.00
6150;BME280;3106;42.670;23.318;2022-10-26T04:18:21;94940.00;;;13.82;100.00
6150;BME280;3106;42.670;23.318;2022-10-26T04:20:48;94934.03;;;13.73;100.00
6150;BME280;3106;42.670;23.318;2022-10-26T04:23:16;94933.59;;;13.71;100.00
6150;BME280;3106;42.670;23.318;2022-10-26T04:25:43;94923.88;;;13.66;100.00
6150;BME280;3106;42.670;23.318;2022-10-26T04:28:11;94926.72;;;13.73;100.00
6150;BME280;3106;42.670;23.318;2022-10-26T04:30:39;94937.91;;;13.75;100.00
6150;BME280;3106;42.670;23.318;2022-10-26T04:33:08;94929.50;;;13.77;100.00
6150;BME280;3106;42.670;23.318;2022-10-26T04:35:34;94928.44;;;13.81;100.00
6150;BME280;3106;42.670;23.318;2022-10-26T04:38:06;94924.19;;;13.80;100.00
6150;BME280;3106;42.670;23.318;2022-10-26T04:50:49;94926.88;;;13.96;100.00
6150;BME280;3106;42.670;23.318;2022-10-26T04:53:16;94932.25;;;13.96;100.00
6150;BME280;3106;42.670;23.318;2022-10-26T04:55:43;94915.53;;;13.87;100.00
6150;BME280;3106;42.670;23.318;2022-10-26T04:58:10;94957.09;;;14.08;100.00
6150;BME280;3106;42.670;23.318;2022-10-26T05:00:37;94929.56;;;13.96;100.00
6150;BME280;3106;42.670;23.318;2022-10-26T05:03:05;94924.03;;;13.89;100.00
6150;BME280;3106;42.670;23.318;2022-10-26T05:05:34;94950.25;;;14.11;99.89
6150;BME280;3106;42.670;23.318;2022-10-26T05:08:04;94964.03;;;14.25;99.45
6150;BME280;3106;42.670;23.318;2022-10-26T05:10:31;94952.34;;;14.17;99.59
6150;BME280;3106;42.670;23.318;2022-10-26T05:12:59;94949.41;;;14.22;99.76
6150;BME280;3106;42.670;23.318;2022-10-26T05:15:26;94962.06;;;14.22;99.79
6150;BME280;3106;42.670;23.318;2022-10-26T05:17:55;94949.56;;;14.14;100.00
6150;BME280;3106;42.670;23.318;2022-10-26T05:20:22;94938.28;;;14.08;99.80
6150;BME280;3106;42.670;23.318;2022-10-26T05:22:54;94950.44;;;14.18;100.00
6150;BME280;3106;42.670;23.318;2022-10-26T05:25:22;94956.59;;;14.18;99.73
6150;BME280;3106;42.670;23.318;2022-10-26T05:27:49;94944.09;;;14.10;99.86
6150;BME280;3106;42.670;23.318;2022-10-26T05:30:16;94955.41;;;14.16;99.73
6150;BME280;3106;42.670;23.318;2022-10-26T05:32:43;94952.44;;;14.05;99.83
6150;BME280;3106;42.670;23.318;2022-10-26T05:35:10;94972.66;;;14.15;99.75
6150;BME280;3106;42.670;23.318;2022-10-26T05:37:38;94947.56;;;14.11;99.15
6150;BME280;3106;42.670;23.318;2022-10-26T05:40:06;94971.34;;;14.24;99.25
6150;BME280;3106;42.670;23.318;2022-10-26T05:42:35;94974.09;;;14.28;99.12
6150;BME280;3106;42.670;23.318;2022-10-26T05:45:13;94978.91;;;14.38;98.88
6150;BME280;3106;42.670;23.318;2022-10-26T05:47:43;94985.59;;;14.44;98.56
6150;BME280;3106;42.670;23.318;2022-10-26T05:50:11;94961.88;;;14.30;98.49
6150;BME280;3106;42.670;23.318;2022-10-26T05:52:38;95007.44;;;14.58;98.43
6150;BME280;3106;42.670;23.318;2022-10-26T05:55:06;94996.50;;;14.51;98.38
6150;BME280;3106;42.670;23.318;2022-10-26T05:57:36;95004.88;;;14.65;98.38
6150;BME280;3106;42.670;23.318;2022-10-26T06:00:16;94996.09;;;14.68;98.01
6150;BME280;3106;42.670;23.318;2022-10-26T06:06:22;94998.06;;;14.71;97.59
6150;BME280;3106;42.670;23.318;2022-10-26T06:08:51;95019.63;;;14.90;97.49
6150;BME280;3106;42.670;23.318;2022-10-26T06:11:20;95023.88;;;14.91;97.19
6150;BME280;3106;42.670;23.318;2022-10-26T06:13:49;95019.69;;;14.93;97.13
6150;BME280;3106;42.670;23.318;2022-10-26T06:16:32;95008.16;;;14.93;96.82
6150;BME280;3106;42.670;23.318;2022-10-26T06:53:30;95020.50;;;15.73;93.22
6150;BME280;3106;42.670;23.318;2022-10-26T06:55:59;95010.44;;;15.70;92.56
6150;BME280;3106;42.670;23.318;2022-10-26T06:58:31;95051.28;;;15.94;92.11
6150;BME280;3106;42.670;23.318;2022-10-26T07:00:59;95005.50;;;15.75;92.08
6150;BME280;3106;42.670;23.318;2022-10-26T07:03:30;95054.94;;;16.05;91.53
6150;BME280;3106;42.670;23.318;2022-10-26T07:06:08;95046.44;;;16.03;91.45
6150;BME280;3106;42.670;23.318;2022-10-26T07:08:39;95048.81;;;16.08;91.38
6150;BME280;3106;42.670;23.318;2022-10-26T07:11:06;95045.88;;;16.17;91.27
6150;BME280;3106;42.670;23.318;2022-10-26T07:13:33;95057.44;;;16.17;91.42
6150;BME280;3106;42.670;23.318;2022-10-26T07:16:00;95040.25;;;16.25;90.95
6150;BME280;3106;42.670;23.318;2022-10-26T07:18:28;95047.66;;;16.32;90.44
6150;BME280;3106;42.670;23.318;2022-10-26T07:21:08;95031.59;;;16.16;90.05
6150;BME280;3106;42.670;23.318;2022-10-26T07:23:35;95054.50;;;16.48;89.43
6150;BME280;3106;42.670;23.318;2022-10-26T07:26:03;95053.34;;;16.49;89.08
6150;BME280;3106;42.670;23.318;2022-10-26T07:28:32;95019.00;;;16.24;89.18
6150;BME280;3106;42.670;23.318;2022-10-26T10:14:16;95008.84;;;21.45;53.01
6150;BME280;3106;42.670;23.318;2022-10-26T10:23:20;94987.78;;;21.56;53.48
6150;BME280;3106;42.670;23.318;2022-10-26T10:26:08;95001.94;;;21.95;52.48
6150;BME280;3106;42.670;23.318;2022-10-26T10:28:37;94991.69;;;22.17;51.32
6150;BME280;3106;42.670;23.318;2022-10-26T10:31:21;94993.06;;;22.35;51.07
6150;BME280;3106;42.670;23.318;2022-10-26T10:33:48;94994.19;;;22.45;50.11
6150;BME280;3106;42.670;23.318;2022-10-26T10:36:17;95000.69;;;22.58;49.75
6150;BME280;3106;42.670;23.318;2022-10-26T10:38:47;94993.72;;;22.06;51.39
6150;BME280;3106;42.670;23.318;2022-10-26T10:41:19;94997.09;;;22.20;51.68
6150;BME280;3106;42.670;23.318;2022-10-26T10:43:49;94961.75;;;22.13;51.59
6150;BME280;3106;42.670;23.318;2022-10-26T10:46:21;94971.84;;;22.16;52.10
6150;BME280;3106;42.670;23.318;2022-10-26T10:48:53;94982.97;;;22.36;52.17
6150;BME280;3106;42.670;23.318;2022-10-26T10:51:22;94979.69;;;22.55;52.20
6150;BME280;3106;42.670;23.318;2022-10-26T10:53:52;94983.44;;;22.71;51.25
6150;BME280;3106;42.670;23.318;2022-10-26T10:56:33;94988.78;;;22.82;50.65
6150;BME280;3106;42.670;23.318;2022-10-26T10:59:30;94976.03;;;23.08;49.83
6150;BME280;3106;42.670;23.318;2022-10-26T14:56:39;94980.31;;;20.85;38.72
6150;BME280;3106;42.670;23.318;2022-10-26T14:59:17;94955.13;;;20.64;39.14
6150;BME280;3106;42.670;23.318;2022-10-26T15:01:52;94957.03;;;20.63;39.81
6150;BME280;3106;42.670;23.318;2022-10-26T15:04:30;94948.91;;;20.53;39.67
6150;BME280;3106;42.670;23.318;2022-10-26T15:07:07;94987.28;;;20.72;40.27
6150;BME280;3106;42.670;23.318;2022-10-26T15:09:40;94984.22;;;20.67;40.36
6150;BME280;3106;42.670;23.318;2022-10-26T15:12:18;94977.22;;;20.62;41.48
6150;BME280;3106;42.670;23.318;2022-10-26T15:14:45;94979.19;;;20.48;41.07
6150;BME280;3106;42.670;23.318;2022-10-26T15:17:20;94993.94;;;20.47;40.83
6150;BME280;3106;42.670;23.318;2022-10-26T15:19:48;95001.31;;;20.43;41.18
6150;BME280;3106;42.670;23.318;2022-10-26T15:22:21;95010.25;;;20.19;40.53
6150;BME280;3106;42.670;23.318;2022-10-26T15:24:51;94976.88;;;19.97;41.79
6150;BME280;3106;42.670;23.318;2022-10-26T15:27:21;94980.75;;;19.83;42.65
6150;BME280;3106;42.670;23.318;2022-10-26T15:29:50;95003.22;;;19.86;43.62
6150;BME280;3106;42.670;23.318;2022-10-26T15:32:29;95003.59;;;19.78;43.51
6150;BME280;3106;42.670;23.318;2022-10-26T15:38:03;95012.81;;;19.49;44.58
6150;BME280;3106;42.670;23.318;2022-10-26T15:40:30;94995.34;;;19.29;44.64
6150;BME280;3106;42.670;23.318;2022-10-26T15:42:59;95028.69;;;19.33;44.86
6150;BME280;3106;42.670;23.318;2022-10-26T15:45:28;95022.84;;;19.24;44.19
6150;BME280;3106;42.670;23.318;2022-10-26T15:47:58;95018.84;;;19.11;44.62
6150;BME280;3106;42.670;23.318;2022-10-26T15:50:27;95031.22;;;19.02;44.85
6150;BME280;3106;42.670;23.318;2022-10-26T15:52:57;95016.81;;;18.87;44.71
6150;BME280;3106;42.670;23.318;2022-10-26T15:55:25;95039.72;;;19.00;43.76
6150;BME280;3106;42.670;23.318;2022-10-26T15:57:52;95045.94;;;19.01;44.02
6150;BME280;3106;42.670;23.318;2022-10-26T16:00:21;95031.50;;;18.83;43.86
6150;BME280;3106;42.670;23.318;2022-10-26T16:02:47;95031.88;;;18.78;44.02
6150;BME280;3106;42.670;23.318;2022-10-26T16:05:15;95027.19;;;18.75;42.59
6150;BME280;3106;42.670;23.318;2022-10-26T16:07:43;95052.44;;;18.93;42.34
6150;BME280;3106;42.670;23.318;2022-10-26T16:10:17;95053.97;;;18.87;43.44
6150;BME280;3106;42.670;23.318;2022-10-26T16:12:45;95039.94;;;18.71;43.71
6150;BME280;3106;42.670;23.318;2022-10-26T16:15:16;95037.16;;;18.60;44.55
6150;BME280;3106;42.670;23.318;2022-10-26T16:17:46;95018.06;;;18.39;44.67
6150;BME280;3106;42.670;23.318;2022-10-26T16:20:15;95049.91;;;18.56;45.07
6150;BME280;3106;42.670;23.318;2022-10-26T16:22:43;95065.00;;;18.57;45.15
6150;BME280;3106;42.670;23.318;2022-10-26T16:25:14;95059.09;;;18.41;45.71
6150;BME280;3106;42.670;23.318;2022-10-26T16:27:42;95066.78;;;18.39;45.75
6150;BME280;3106;42.670;23.318;2022-10-26T16:30:09;95063.72;;;18.41;45.91
6150;BME280;3106;42.670;23.318;2022-10-26T16:32:37;95029.06;;;18.17;46.01
6150;BME280;3106;42.670;23.318;2022-10-26T16:35:08;95085.38;;;18.41;45.90
6150;BME280;3106;42.670;23.318;2022-10-26T16:37:35;95088.81;;;18.34;46.31
6150;BME280;3106;42.670;23.318;2022-10-26T16:40:02;95069.25;;;18.15;46.90
6150;BME280;3106;42.670;23.318;2022-10-26T16:42:30;95089.53;;;18.28;47.24
6150;BME280;3106;42.670;23.318;2022-10-26T16:44:56;95044.28;;;17.89;47.38
6150;BME280;3106;42.670;23.318;2022-10-26T16:47:24;95082.78;;;18.12;47.93
6150;BME280;3106;42.670;23.318;2022-10-26T16:49:51;95078.44;;;18.04;47.76
6150;BME280;3106;42.670;23.318;2022-10-26T16:52:19;95098.63;;;18.10;48.25
6150;BME280;3106;42.670;23.318;2022-10-26T16:54:48;95088.84;;;17.98;48.01
6150;BME280;3106;42.670;23.318;2022-10-26T16:57:15;95104.72;;;18.03;48.59
6150;BME280;3106;42.670;23.318;2022-10-26T16:59:42;95091.47;;;17.91;48.75
6150;BME280;3106;42.670;23.318;2022-10-26T17:02:12;95095.66;;;17.85;48.97
6150;BME280;3106;42.670;23.318;2022-10-26T17:05:17;95111.09;;;17.85;49.34
6150;BME280;3106;42.670;23.318;2022-10-26T17:08:02;95108.69;;;17.76;49.59
6150;BME280;3106;42.670;23.318;2022-10-26T17:10:29;95082.94;;;17.53;50.29
6150;BME280;3106;42.670;23.318;2022-10-26T17:12:56;95098.81;;;17.58;50.46
6150;BME280;3106;42.670;23.318;2022-10-26T17:15:23;95084.75;;;17.45;50.54
6150;BME280;3106;42.670;23.318;2022-10-26T17:17:52;95096.03;;;17.51;51.22
6150;BME280;3106;42.670;23.318;2022-10-26T17:20:19;95116.94;;;17.54;51.43
6150;BME280;3106;42.670;23.318;2022-10-26T17:22:47;95080.69;;;17.29;51.63
6150;BME280;3106;42.670;23.318;2022-10-26T17:25:15;95120.28;;;17.44;51.78
6150;BME280;3106;42.670;23.318;2022-10-26T17:27:42;95114.00;;;17.33;52.57
6150;BME280;3106;42.670;23.318;2022-10-26T17:33:14;95123.41;;;17.20;53.04
6150;BME280;3106;42.670;23.318;2022-10-26T17:35:41;95134.31;;;17.27;53.17
6150;BME280;3106;42.670;23.318;2022-10-26T17:38:09;95142.34;;;17.20;53.57
6150;BME280;3106;42.670;23.318;2022-10-26T17:40:38;95146.50;;;17.14;54.10
6150;BME280;3106;42.670;23.318;2022-10-26T17:43:04;95146.41;;;17.07;54.02
6150;BME280;3106;42.670;23.318;2022-10-26T17:45:31;95144.03;;;17.02;54.49
6150;BME280;3106;42.670;23.318;2022-10-26T17:47:58;95147.06;;;16.97;54.28
6150;BME280;3106;42.670;23.318;2022-10-26T17:50:25;95149.69;;;16.93;54.57
6150;BME280;3106;42.670;23.318;2022-10-26T17:52:53;95131.25;;;16.73;54.79
6150;BME280;3106;42.670;23.318;2022-10-26T17:55:20;95151.81;;;16.81;55.05
6150;BME280;3106;42.670;23.318;2022-10-26T17:57:48;95138.44;;;16.66;54.92
6150;BME280;3106;42.670;23.318;2022-10-26T18:00:16;95162.50;;;16.74;55.63
6150;BME280;3106;42.670;23.318;2022-10-26T18:02:44;95162.09;;;16.72;55.87
6150;BME280;3106;42.670;23.318;2022-10-26T18:05:10;95158.56;;;16.68;55.78
6150;BME280;3106;42.670;23.318;2022-10-26T18:07:37;95157.00;;;16.67;55.54
6150;BME280;3106;42.670;23.318;2022-10-26T18:10:04;95162.41;;;16.67;55.30
6150;BME280;3106;42.670;23.318;2022-10-26T18:12:31;95160.03;;;16.66;54.99
6150;BME280;3106;42.670;23.318;2022-10-26T18:28:42;95167.56;;;16.53;55.14
